YCIG weather

Corrigin Airport
Western Australia, Australia

Public forecast

Using degrees Celsius for public forecast. Weather courtesy of forecast.io.

Closest aviation weather report (METAR) to Corrigin Airport

Closest report is Perth International Airport, 97.0 nm (179.6 km) WNW. Retrieved 2019/10/14 11:30 UTC (14 minutes ago):

YPPH 141130Z 21013KT 9999 FEW035 15/07 Q1020 NOSIG

Closest aviation forecast (TAF) to Corrigin Airport

Closest forecast is Perth International Airport, 97.0 nm (179.6 km) WNW. Retrieved 2019/10/14 06:00 UTC (6 hours ago):

TAF YPPH 140503Z 1406/1512 22014KT CAVOK FM141500 16008KT CAVOK FM150400 22012KT CAVOK